createdAt,value
2022-08-18T00:01:26.155Z,28.70
2022-08-18T00:04:03.023Z,28.70
2022-08-18T00:06:32.200Z,28.70
2022-08-18T00:09:05.743Z,28.60
2022-08-18T00:11:41.157Z,28.60
2022-08-18T00:14:21.350Z,28.60
2022-08-18T00:16:54.299Z,28.50
2022-08-18T00:19:43.687Z,28.50
2022-08-18T00:22:15.659Z,28.50
2022-08-18T00:24:49.084Z,28.50
2022-08-18T00:27:26.149Z,28.40
2022-08-18T00:29:59.447Z,28.40
2022-08-18T00:32:33.636Z,28.40
2022-08-18T00:35:09.770Z,28.40
2022-08-18T00:37:37.835Z,28.40
2022-08-18T00:40:12.368Z,28.30
2022-08-18T00:42:46.092Z,28.30
2022-08-18T00:45:17.389Z,28.30
2022-08-18T00:47:45.398Z,28.30
2022-08-18T00:50:20.206Z,28.30
2022-08-18T00:52:54.692Z,28.30
2022-08-18T00:55:27.216Z,28.20
2022-08-18T00:58:01.766Z,28.20
2022-08-18T01:00:30.012Z,28.20
2022-08-18T01:03:02.968Z,28.20
2022-08-18T01:05:40.818Z,28.20
2022-08-18T01:08:14.315Z,28.20
2022-08-18T01:10:44.880Z,28.10
2022-08-18T01:13:13.026Z,28.10
2022-08-18T01:15:41.347Z,28.10
2022-08-18T01:18:38.158Z,28.10
2022-08-18T01:21:31.018Z,28.00
2022-08-18T01:24:03.930Z,28.00
2022-08-18T01:26:35.444Z,28.00
2022-08-18T01:29:11.607Z,28.00
2022-08-18T01:31:54.820Z,27.90
2022-08-18T01:34:27.493Z,27.90
2022-08-18T01:36:56.613Z,27.90
2022-08-18T01:41:23.005Z,27.90
2022-08-18T01:42:17.207Z,27.80
2022-08-18T01:44:47.801Z,27.90
2022-08-18T01:47:17.114Z,27.90
2022-08-18T01:49:45.810Z,27.80
2022-08-18T01:52:19.466Z,27.80
2022-08-18T01:54:49.791Z,27.80
2022-08-18T01:57:20.294Z,27.80
2022-08-18T01:59:48.744Z,27.80
2022-08-18T02:02:24.280Z,27.70
2022-08-18T02:04:56.482Z,27.70
2022-08-18T02:07:27.941Z,27.70
2022-08-18T02:10:07.127Z,27.70
2022-08-18T02:12:40.821Z,27.70
2022-08-18T02:15:11.084Z,27.70
2022-08-18T02:17:40.464Z,27.60
2022-08-18T02:20:12.713Z,27.60
2022-08-18T02:22:41.896Z,27.60
2022-08-18T02:25:13.494Z,27.60
2022-08-18T02:27:41.607Z,27.60
2022-08-18T02:30:14.022Z,27.50
2022-08-18T02:32:42.644Z,27.50
2022-08-18T02:35:12.257Z,27.50
2022-08-18T02:37:42.166Z,27.50
2022-08-18T02:40:14.883Z,27.50
2022-08-18T02:42:44.408Z,27.50
2022-08-18T02:45:14.304Z,27.50
2022-08-18T02:47:44.587Z,27.50
2022-08-18T02:50:13.886Z,27.40
2022-08-18T02:52:41.858Z,27.40
2022-08-18T02:55:12.585Z,27.40
2022-08-18T02:57:44.103Z,27.40
2022-08-18T03:00:16.065Z,27.40
2022-08-18T03:02:48.268Z,27.40
2022-08-18T03:05:16.932Z,27.40
2022-08-18T03:07:46.759Z,27.30
2022-08-18T03:10:31.361Z,27.30
2022-08-18T03:13:01.949Z,27.30
2022-08-18T03:15:31.784Z,27.30
2022-08-18T03:18:02.093Z,27.30
2022-08-18T03:20:31.454Z,27.30
2022-08-18T03:23:05.903Z,27.30
2022-08-18T03:25:47.328Z,27.20
2022-08-18T03:28:17.663Z,27.20
2022-08-18T03:30:45.832Z,27.20
2022-08-18T03:33:13.765Z,27.20
2022-08-18T03:35:42.067Z,27.20
2022-08-18T03:38:10.096Z,27.20
2022-08-18T03:40:39.637Z,27.10
2022-08-18T03:43:38.882Z,27.10
2022-08-18T03:45:56.055Z,27.10
2022-08-18T03:48:25.263Z,27.10
2022-08-18T03:50:53.188Z,27.10
2022-08-18T03:53:21.222Z,27.10
2022-08-18T03:55:50.436Z,27.10
2022-08-18T03:58:18.384Z,27.10
2022-08-18T04:00:46.297Z,27.10
2022-08-18T04:03:14.296Z,27.10
2022-08-18T04:05:42.293Z,27.10
2022-08-18T04:08:10.265Z,27.00
2022-08-18T04:10:38.369Z,27.00
2022-08-18T04:13:07.626Z,27.00
2022-08-18T04:15:35.611Z,27.00
2022-08-18T04:18:04.538Z,27.00
2022-08-18T04:20:33.431Z,27.00
2022-08-18T04:23:01.561Z,27.00
2022-08-18T04:25:32.904Z,27.00
2022-08-18T04:28:03.389Z,27.00
2022-08-18T04:30:32.812Z,27.00
2022-08-18T04:33:06.322Z,26.90
2022-08-18T04:35:34.221Z,27.00
2022-08-18T04:38:02.129Z,27.00
2022-08-18T04:40:33.298Z,26.90
2022-08-18T04:43:01.772Z,26.90
2022-08-18T04:45:30.169Z,26.90
2022-08-18T04:47:59.399Z,26.90
2022-08-18T04:50:27.284Z,26.90
2022-08-18T04:53:15.761Z,27.00
2022-08-18T04:55:49.361Z,26.90
2022-08-18T04:58:18.782Z,26.90
2022-08-18T05:00:47.311Z,27.00
2022-08-18T05:03:16.537Z,27.00
2022-08-18T05:05:44.495Z,27.00
2022-08-18T05:08:12.418Z,27.00
2022-08-18T05:10:41.461Z,27.00
2022-08-18T05:13:09.815Z,27.00
2022-08-18T05:15:59.319Z,27.00
2022-08-18T05:18:27.428Z,27.00
2022-08-18T05:20:57.945Z,27.10
2022-08-18T05:23:29.530Z,27.10
2022-08-18T05:26:03.641Z,27.10
2022-08-18T05:28:32.154Z,27.10
2022-08-18T05:31:00.548Z,27.10
2022-08-18T05:33:30.005Z,27.10
2022-08-18T05:36:05.886Z,27.10
2022-08-18T05:38:54.820Z,27.10
2022-08-18T05:41:28.823Z,27.20
2022-08-18T05:43:59.152Z,27.20
2022-08-18T05:46:41.393Z,27.20
2022-08-18T05:49:13.413Z,27.20
2022-08-18T05:51:47.875Z,27.30
2022-08-18T05:54:35.672Z,27.30
2022-08-18T05:57:09.005Z,27.30
2022-08-18T05:59:41.442Z,27.30
2022-08-18T06:02:28.239Z,27.40
2022-08-18T06:05:04.749Z,27.40
2022-08-18T06:07:41.830Z,27.40
2022-08-18T06:10:12.470Z,27.50
2022-08-18T06:12:47.075Z,27.50
2022-08-18T06:15:20.991Z,27.50
2022-08-18T06:18:32.936Z,27.50
2022-08-18T06:21:29.347Z,27.60
2022-08-18T06:24:09.750Z,27.60
2022-08-18T06:26:51.295Z,27.60
2022-08-18T06:29:36.973Z,27.70
2022-08-18T06:32:15.947Z,27.70
2022-08-18T06:35:04.413Z,27.70
2022-08-18T06:38:04.495Z,27.70
2022-08-18T06:40:32.561Z,27.80
2022-08-18T06:43:02.239Z,27.80
2022-08-18T06:45:40.149Z,27.80
2022-08-18T06:48:21.664Z,27.90
2022-08-18T06:50:54.416Z,27.90
2022-08-18T06:53:28.099Z,28.00
2022-08-18T06:55:56.673Z,28.00
2022-08-18T06:58:30.428Z,28.00
2022-08-18T07:01:06.247Z,28.10
2022-08-18T07:03:50.757Z,28.10
2022-08-18T07:06:32.305Z,28.10
2022-08-18T07:09:33.743Z,28.20
2022-08-18T07:12:07.146Z,28.20
2022-08-18T07:14:46.852Z,28.20
2022-08-18T07:17:22.164Z,28.30
2022-08-18T07:19:59.648Z,28.30
2022-08-18T07:22:33.689Z,28.40
2022-08-18T07:25:24.449Z,28.30
2022-08-18T07:27:55.964Z,28.40
2022-08-18T07:30:34.061Z,28.40
2022-08-18T07:33:14.798Z,28.40
2022-08-18T07:35:54.548Z,28.40
2022-08-18T07:38:42.557Z,28.50
2022-08-18T07:41:20.335Z,28.50
2022-08-18T07:44:07.515Z,28.50
2022-08-18T07:46:46.474Z,28.60
2022-08-18T07:49:22.663Z,28.60
2022-08-18T07:51:58.747Z,28.70
2022-08-18T07:54:50.180Z,28.70
2022-08-18T07:57:35.374Z,28.80
2022-08-18T08:00:41.071Z,28.80
2022-08-18T08:03:38.084Z,28.80
2022-08-18T08:06:17.406Z,28.90
2022-08-18T08:08:56.918Z,28.90
2022-08-18T08:11:44.618Z,29.00
2022-08-18T08:14:40.151Z,29.00
2022-08-18T08:17:19.241Z,29.10
2022-08-18T08:20:15.097Z,29.10
2022-08-18T08:23:05.769Z,29.20
2022-08-18T08:25:50.944Z,29.30
2022-08-18T08:28:40.392Z,29.40
2022-08-18T08:31:37.791Z,29.50
2022-08-18T08:34:15.813Z,29.70
2022-08-18T08:36:47.821Z,29.80
2022-08-18T08:39:23.784Z,29.90
2022-08-18T08:42:29.210Z,30.00
2022-08-18T08:45:00.849Z,30.20
2022-08-18T08:47:35.664Z,30.30
2022-08-18T08:50:09.836Z,30.40
2022-08-18T08:52:46.143Z,30.50
2022-08-18T08:55:19.829Z,30.60
2022-08-18T08:57:56.927Z,30.60
2022-08-18T09:00:26.172Z,30.70
2022-08-18T09:03:13.628Z,30.70
2022-08-18T09:05:56.622Z,30.80
2022-08-18T09:09:07.814Z,30.80
2022-08-18T09:12:09.801Z,30.80
2022-08-18T09:15:16.626Z,30.80
2022-08-18T09:18:05.756Z,30.80
2022-08-18T09:20:54.434Z,30.80
2022-08-18T09:23:28.959Z,30.80
2022-08-18T09:26:01.057Z,30.80
2022-08-18T09:28:58.066Z,30.80
2022-08-18T09:31:31.720Z,30.90
2022-08-18T09:34:38.942Z,30.80
2022-08-18T09:37:20.312Z,30.80
2022-08-18T09:40:38.631Z,30.80
2022-08-18T09:43:20.058Z,30.80
2022-08-18T09:46:00.190Z,30.80
2022-08-18T09:48:33.455Z,30.90
2022-08-18T09:51:35.005Z,30.80
2022-08-18T09:54:15.107Z,30.80
2022-08-18T09:57:24.823Z,30.80
2022-08-18T10:03:26.443Z,30.80
2022-08-18T10:06:20.676Z,30.80
2022-08-18T10:09:26.758Z,30.80
2022-08-18T10:12:49.643Z,30.80
2022-08-18T10:15:51.089Z,30.80
2022-08-18T10:18:51.252Z,30.80
2022-08-18T10:21:31.473Z,30.80
2022-08-18T10:27:29.137Z,30.80
2022-08-18T10:29:59.200Z,30.80
2022-08-18T10:32:54.095Z,30.80
2022-08-18T10:35:59.553Z,30.80
2022-08-18T10:38:53.417Z,30.80
2022-08-18T10:44:29.161Z,30.80
2022-08-18T10:47:01.054Z,30.80
2022-08-18T10:49:33.141Z,30.80
2022-08-18T10:52:27.824Z,30.80
2022-08-18T10:55:48.227Z,30.80
2022-08-18T10:58:45.161Z,30.70
2022-08-18T11:01:32.226Z,30.80
2022-08-18T11:04:16.012Z,30.80
2022-08-18T11:07:09.897Z,30.80
2022-08-18T11:09:41.657Z,30.80
2022-08-18T11:12:14.843Z,30.80
2022-08-18T11:15:22.480Z,30.80
2022-08-18T11:18:10.871Z,30.80
2022-08-18T11:20:43.016Z,30.80
2022-08-18T11:23:16.855Z,30.80
2022-08-18T11:25:45.821Z,30.90
2022-08-18T11:28:18.727Z,30.90
2022-08-18T11:30:53.413Z,30.80
2022-08-18T11:33:24.436Z,30.90
2022-08-18T11:35:58.456Z,30.90
2022-08-18T11:38:31.640Z,30.90
2022-08-18T11:41:33.840Z,30.90
2022-08-18T11:44:21.007Z,30.90
2022-08-18T11:46:57.559Z,30.80
2022-08-18T11:49:34.239Z,30.80
2022-08-18T11:52:16.942Z,30.90
2022-08-18T11:54:59.426Z,30.90
2022-08-18T11:57:59.234Z,30.80
2022-08-18T12:01:01.573Z,30.80
2022-08-18T12:03:43.374Z,30.80
2022-08-18T12:06:26.687Z,30.80
2022-08-18T12:09:01.737Z,30.80
2022-08-18T12:11:33.600Z,30.80
2022-08-18T12:14:31.965Z,30.80
2022-08-18T12:16:57.422Z,30.80
2022-08-18T12:19:30.946Z,30.80
2022-08-18T12:22:03.910Z,30.80
2022-08-18T12:24:40.174Z,30.80
2022-08-18T12:29:58.388Z,30.70
2022-08-18T12:32:46.709Z,30.70
2022-08-18T12:35:21.937Z,30.70
2022-08-18T12:38:00.176Z,30.70
2022-08-18T12:40:39.334Z,30.70
2022-08-18T12:43:07.463Z,30.70
2022-08-18T12:45:37.924Z,30.70
2022-08-18T12:48:06.996Z,30.70
2022-08-18T12:50:49.753Z,30.70
2022-08-18T12:53:30.777Z,30.70
2022-08-18T12:56:10.639Z,30.70
2022-08-18T12:58:40.529Z,30.70
2022-08-18T13:01:08.777Z,30.70
2022-08-18T13:03:36.948Z,30.70
2022-08-18T13:06:07.060Z,30.70
2022-08-18T13:08:47.825Z,30.70
2022-08-18T13:11:21.721Z,30.70
2022-08-18T13:13:56.265Z,30.70
2022-08-18T13:16:30.652Z,30.70
2022-08-18T13:19:06.975Z,30.70
2022-08-18T13:21:41.164Z,30.70
2022-08-18T13:24:10.477Z,30.70
2022-08-18T13:26:45.666Z,30.70
2022-08-18T13:29:17.576Z,30.70
2022-08-18T13:31:55.541Z,30.70
2022-08-18T13:34:29.775Z,30.70
2022-08-18T13:36:59.491Z,30.70
2022-08-18T13:39:34.133Z,30.70
2022-08-18T13:42:21.495Z,30.70
2022-08-18T13:44:54.872Z,30.70
2022-08-18T13:47:23.472Z,30.70
2022-08-18T13:49:57.946Z,30.70
2022-08-18T13:52:35.643Z,30.70
2022-08-18T13:55:17.667Z,30.70
2022-08-18T13:57:48.450Z,30.70
2022-08-18T14:00:29.791Z,30.70
2022-08-18T14:03:03.295Z,30.70
2022-08-18T14:05:36.217Z,30.80
2022-08-18T14:08:19.809Z,30.80
2022-08-18T14:10:51.829Z,30.80
2022-08-18T14:13:24.534Z,30.80
2022-08-18T14:15:54.942Z,30.80
2022-08-18T14:18:28.980Z,30.80
2022-08-18T14:21:16.871Z,30.80
2022-08-18T14:24:10.271Z,30.80
2022-08-18T14:26:51.184Z,30.80
2022-08-18T14:29:46.717Z,30.80
2022-08-18T14:32:09.309Z,30.80
2022-08-18T14:34:50.614Z,30.80
2022-08-18T14:37:19.440Z,30.80
2022-08-18T14:39:53.803Z,30.80
2022-08-18T14:42:33.079Z,30.80
2022-08-18T14:45:26.351Z,30.80
2022-08-18T14:47:59.280Z,30.80
2022-08-18T14:50:27.678Z,30.80
2022-08-18T14:52:55.717Z,30.80
2022-08-18T14:55:25.231Z,30.80
2022-08-18T14:57:54.941Z,30.80
2022-08-18T15:00:27.970Z,30.80
2022-08-18T15:02:57.420Z,30.80
2022-08-18T15:05:33.811Z,30.80
2022-08-18T15:08:04.674Z,30.80
2022-08-18T15:10:34.290Z,30.80
2022-08-18T15:13:03.696Z,30.80
2022-08-18T15:15:50.573Z,30.80
2022-08-18T15:18:22.496Z,30.80
2022-08-18T15:21:10.416Z,30.80
2022-08-18T15:24:18.999Z,30.80
2022-08-18T15:26:58.031Z,30.80
2022-08-18T15:29:31.890Z,30.80
2022-08-18T15:32:05.146Z,30.80
2022-08-18T15:34:46.034Z,30.80
2022-08-18T15:37:16.042Z,30.80
2022-08-18T15:39:51.974Z,30.80
2022-08-18T15:42:25.192Z,30.80
2022-08-18T15:44:53.898Z,30.80
2022-08-18T15:47:25.162Z,30.80
2022-08-18T15:49:54.975Z,30.80
2022-08-18T15:52:26.182Z,30.80
2022-08-18T15:54:58.368Z,30.80
2022-08-18T15:57:39.571Z,30.80
2022-08-18T16:00:12.412Z,30.80
2022-08-18T16:02:44.622Z,30.80
2022-08-18T16:05:18.051Z,30.80
2022-08-18T16:07:47.459Z,30.80
2022-08-18T16:10:18.070Z,30.80
2022-08-18T16:12:48.670Z,30.70
2022-08-18T16:15:19.612Z,30.70
2022-08-18T16:17:51.528Z,30.70
2022-08-18T16:20:23.510Z,30.70
2022-08-18T16:22:53.304Z,30.70
2022-08-18T16:25:22.209Z,30.70
2022-08-18T16:27:54.219Z,30.70
2022-08-18T16:30:26.472Z,30.70
2022-08-18T16:32:55.495Z,30.70
2022-08-18T16:35:24.113Z,30.70
2022-08-18T16:37:52.511Z,30.70
2022-08-18T16:40:21.676Z,30.70
2022-08-18T16:42:56.296Z,30.70
2022-08-18T16:45:24.419Z,30.70
2022-08-18T16:47:52.417Z,30.70
2022-08-18T16:50:20.584Z,30.70
2022-08-18T16:52:48.602Z,30.70
2022-08-18T16:55:16.617Z,30.70
2022-08-18T16:58:03.673Z,30.60
2022-08-18T17:00:54.634Z,30.60
2022-08-18T17:03:41.757Z,30.60
2022-08-18T17:06:13.784Z,30.60
2022-08-18T17:08:43.053Z,30.60
2022-08-18T17:11:14.727Z,30.60
2022-08-18T17:13:43.909Z,30.60
2022-08-18T17:16:14.379Z,30.60
2022-08-18T17:18:43.434Z,30.60
2022-08-18T17:21:17.709Z,30.60
2022-08-18T17:23:46.502Z,30.60
2022-08-18T17:26:24.508Z,30.50
2022-08-18T17:29:01.891Z,30.50
2022-08-18T17:31:32.244Z,30.60
2022-08-18T17:34:08.295Z,30.50
2022-08-18T17:36:53.791Z,30.50
2022-08-18T17:39:31.678Z,30.50
2022-08-18T17:42:17.381Z,30.50
2022-08-18T17:44:52.267Z,30.50
2022-08-18T17:47:33.324Z,30.50
2022-08-18T17:50:41.433Z,30.50
2022-08-18T17:53:11.497Z,30.50
2022-08-18T17:55:46.892Z,30.40
2022-08-18T17:58:26.940Z,30.40
2022-08-18T18:00:55.086Z,30.50
2022-08-18T18:03:24.648Z,30.40
2022-08-18T18:06:01.333Z,30.40
2022-08-18T18:08:53.469Z,30.40
2022-08-18T18:11:32.075Z,30.40
2022-08-18T18:14:02.018Z,30.40
2022-08-18T18:16:35.216Z,30.40
2022-08-18T18:19:13.221Z,30.40
2022-08-18T18:21:53.348Z,30.40
2022-08-18T18:24:33.347Z,30.40
2022-08-18T18:27:02.865Z,30.40
2022-08-18T18:29:38.070Z,30.40
2022-08-18T18:32:25.139Z,30.30
2022-08-18T18:35:16.114Z,30.30
2022-08-18T18:37:55.261Z,30.30
2022-08-18T18:40:33.167Z,30.30
2022-08-18T18:43:21.862Z,30.30
2022-08-18T18:46:29.894Z,30.30
2022-08-18T18:49:18.896Z,30.20
2022-08-18T18:52:03.738Z,30.20
2022-08-18T18:55:01.470Z,30.20
2022-08-18T18:57:41.971Z,30.20
2022-08-18T19:00:20.901Z,30.20
2022-08-18T19:03:04.484Z,30.20
2022-08-18T19:05:39.227Z,30.20
2022-08-18T19:08:33.173Z,30.20
2022-08-18T19:11:15.711Z,30.10
2022-08-18T19:13:54.410Z,30.10
2022-08-18T19:16:29.662Z,30.10
2022-08-18T19:19:35.871Z,30.10
2022-08-18T19:22:07.019Z,30.10
2022-08-18T19:24:46.493Z,30.10
2022-08-18T19:27:28.119Z,30.10
2022-08-18T19:30:03.044Z,30.10
2022-08-18T19:32:42.472Z,30.00
2022-08-18T19:35:19.596Z,30.00
2022-08-18T19:38:14.178Z,30.00
2022-08-18T19:40:50.491Z,30.00
2022-08-18T19:43:29.710Z,30.00
2022-08-18T19:46:10.535Z,30.00
2022-08-18T19:48:51.469Z,29.90
2022-08-18T19:51:29.703Z,29.90
2022-08-18T19:54:37.176Z,29.90
2022-08-18T19:57:26.029Z,29.90
2022-08-18T20:00:21.519Z,29.80
2022-08-18T20:03:12.350Z,29.80
2022-08-18T20:05:52.426Z,29.80
2022-08-18T20:09:04.125Z,29.80
2022-08-18T20:12:14.377Z,29.70
2022-08-18T20:14:43.677Z,29.80
2022-08-18T20:17:21.653Z,29.70
2022-08-18T20:20:15.405Z,29.70
2022-08-18T20:22:47.465Z,29.70
2022-08-18T20:25:43.339Z,29.60
2022-08-18T20:28:34.736Z,29.60
2022-08-18T20:31:15.830Z,29.60
2022-08-18T20:34:03.947Z,29.60
2022-08-18T20:36:36.804Z,29.60
2022-08-18T20:39:40.556Z,29.50
2022-08-18T20:42:29.944Z,29.50
2022-08-18T20:45:08.391Z,29.50
2022-08-18T20:48:00.031Z,29.50
2022-08-18T20:51:00.380Z,29.40
2022-08-18T20:54:13.678Z,29.40
2022-08-18T20:56:50.651Z,29.40
2022-08-18T20:59:25.695Z,29.40
2022-08-18T21:01:58.848Z,29.40
2022-08-18T21:04:57.778Z,29.30
2022-08-18T21:07:37.391Z,29.30
2022-08-18T21:10:18.816Z,29.30
2022-08-18T21:12:53.509Z,29.30
2022-08-18T21:15:25.026Z,29.30
2022-08-18T21:18:02.704Z,29.30
2022-08-18T21:20:32.945Z,29.30
2022-08-18T21:23:08.639Z,29.20
2022-08-18T21:25:37.755Z,29.30
2022-08-18T21:28:07.464Z,29.20
2022-08-18T21:30:35.503Z,29.20
2022-08-18T21:35:59.152Z,29.20
2022-08-18T21:38:30.426Z,29.20
2022-08-18T21:41:01.462Z,29.20
2022-08-18T21:43:49.057Z,29.10
2022-08-18T21:46:27.281Z,29.00
2022-08-18T21:48:59.512Z,29.10
2022-08-18T21:51:33.463Z,29.10
2022-08-18T21:54:02.415Z,29.10
2022-08-18T21:56:34.181Z,29.10
2022-08-18T21:59:09.537Z,29.00
2022-08-18T22:01:49.147Z,29.00
2022-08-18T22:04:32.001Z,29.00
2022-08-18T22:07:07.790Z,29.00
2022-08-18T22:10:21.360Z,28.90
2022-08-18T22:13:11.701Z,28.90
2022-08-18T22:15:44.598Z,28.90
2022-08-18T22:18:36.701Z,28.90
2022-08-18T22:21:11.681Z,28.90
2022-08-18T22:24:04.818Z,28.90
2022-08-18T22:26:36.584Z,28.90
2022-08-18T22:29:19.772Z,28.80
2022-08-18T22:31:51.175Z,28.80
2022-08-18T22:34:27.066Z,28.80
2022-08-18T22:37:00.613Z,28.70
2022-08-18T22:39:34.806Z,28.80
2022-08-18T22:42:05.121Z,28.80
2022-08-18T22:44:33.417Z,28.80
2022-08-18T22:47:03.981Z,28.80
2022-08-18T22:49:35.856Z,28.80
2022-08-18T22:52:13.776Z,28.70
2022-08-18T22:54:43.495Z,28.70
2022-08-18T22:57:11.717Z,28.80
2022-08-18T22:59:42.645Z,28.70
2022-08-18T23:02:11.502Z,28.70
2022-08-18T23:04:39.601Z,28.70
2022-08-18T23:07:07.897Z,28.70
2022-08-18T23:09:39.576Z,28.70
2022-08-18T23:12:14.467Z,28.70
2022-08-18T23:14:46.174Z,28.70
2022-08-18T23:17:15.159Z,28.70
2022-08-18T23:19:43.750Z,28.70
2022-08-18T23:22:12.375Z,28.70
2022-08-18T23:24:41.407Z,28.60
2022-08-18T23:27:10.749Z,28.60
2022-08-18T23:29:39.715Z,28.60
2022-08-18T23:32:08.320Z,28.60
2022-08-18T23:34:37.035Z,28.60
2022-08-18T23:37:09.560Z,28.60
2022-08-18T23:39:39.480Z,28.60
2022-08-18T23:42:13.234Z,28.60
2022-08-18T23:44:43.255Z,28.60
2022-08-18T23:47:11.244Z,28.50
2022-08-18T23:49:39.510Z,28.50
2022-08-18T23:52:09.588Z,28.50
2022-08-18T23:54:37.917Z,28.50
2022-08-18T23:57:06.560Z,28.50
2022-08-18T23:59:36.601Z,28.50
